createdAt,value
2019-02-21T00:00:41.672Z,61.82
2019-02-21T00:01:49.769Z,61.25
2019-02-21T00:02:56.639Z,60.38
2019-02-21T00:04:04.273Z,59.59
2019-02-21T00:05:11.969Z,58.18
2019-02-21T00:06:19.688Z,57.43
2019-02-21T00:07:26.871Z,57.82
2019-02-21T00:08:33.939Z,59.01
2019-02-21T00:09:40.834Z,60.01
2019-02-21T00:10:47.754Z,61.45
2019-02-21T00:11:54.487Z,62.39
2019-02-21T00:13:02.125Z,64.80
2019-02-21T00:14:09.868Z,66.59
2019-02-21T00:15:16.980Z,66.52
2019-02-21T00:16:25.644Z,65.32
2019-02-21T00:17:33.068Z,64.20
2019-02-21T00:18:39.851Z,62.84
2019-02-21T00:19:47.406Z,62.25
2019-02-21T00:20:54.179Z,61.60
2019-02-21T00:22:01.604Z,61.12
2019-02-21T00:23:09.701Z,60.70
2019-02-21T00:24:17.015Z,60.22
2019-02-21T00:25:24.292Z,59.55
2019-02-21T00:26:31.083Z,58.55
2019-02-21T00:27:37.286Z,58.00
2019-02-21T00:28:43.724Z,58.55
2019-02-21T00:29:50.233Z,59.60
2019-02-21T00:30:57.545Z,60.77
2019-02-21T00:32:05.101Z,61.64
2019-02-21T00:33:13.058Z,63.29
2019-02-21T00:34:20.203Z,65.60
2019-02-21T00:35:27.340Z,67.16
2019-02-21T00:36:34.393Z,66.84
2019-02-21T00:37:41.129Z,65.76
2019-02-21T00:38:47.785Z,64.59
2019-02-21T00:39:54.892Z,63.45
2019-02-21T00:41:02.516Z,62.87
2019-02-21T00:42:10.262Z,62.24
2019-02-21T00:43:17.691Z,61.60
2019-02-21T00:44:24.435Z,60.96
2019-02-21T00:45:30.727Z,60.79
2019-02-21T00:46:37.330Z,60.33
2019-02-21T00:47:44.330Z,59.90
2019-02-21T00:48:51.280Z,59.43
2019-02-21T00:49:58.500Z,58.44
2019-02-21T00:51:05.270Z,57.85
2019-02-21T00:52:12.308Z,58.47
2019-02-21T00:53:18.927Z,59.47
2019-02-21T00:54:26.061Z,60.48
2019-02-21T00:55:39.048Z,62.04
2019-02-21T00:56:46.362Z,64.11
2019-02-21T00:57:54.375Z,65.81
2019-02-21T00:59:01.424Z,66.06
2019-02-21T01:00:12.913Z,65.56
2019-02-21T01:01:20.879Z,64.59
2019-02-21T01:02:27.746Z,63.84
2019-02-21T01:03:35.255Z,62.82
2019-02-21T01:04:41.351Z,61.97
2019-02-21T01:05:48.369Z,61.26
2019-02-21T01:06:55.420Z,60.61
2019-02-21T01:08:02.621Z,60.18
2019-02-21T01:09:10.285Z,59.76
2019-02-21T01:10:17.386Z,59.53
2019-02-21T01:11:24.644Z,58.65
2019-02-21T01:12:31.060Z,58.29
2019-02-21T01:13:38.196Z,58.81
2019-02-21T01:14:44.893Z,59.86
2019-02-21T01:15:52.042Z,60.95
2019-02-21T01:17:00.796Z,62.16
2019-02-21T01:18:07.813Z,64.70
2019-02-21T01:19:14.285Z,66.03
2019-02-21T01:20:21.230Z,66.17
2019-02-21T01:21:28.213Z,65.30
2019-02-21T01:22:35.597Z,64.04
2019-02-21T01:23:42.894Z,63.49
2019-02-21T01:24:49.634Z,63.00
2019-02-21T01:25:56.978Z,62.68
2019-02-21T01:27:03.504Z,62.41
2019-02-21T01:28:09.727Z,61.98
2019-02-21T01:29:16.720Z,61.70
2019-02-21T01:30:24.221Z,61.39
2019-02-21T01:31:31.205Z,61.10
2019-02-21T01:32:37.821Z,60.77
2019-02-21T01:33:44.318Z,60.30
2019-02-21T01:34:51.285Z,60.20
2019-02-21T01:35:58.503Z,60.06
2019-02-21T01:37:05.858Z,59.96
2019-02-21T01:38:12.445Z,60.25
2019-02-21T01:39:19.982Z,60.32
2019-02-21T01:40:27.163Z,60.05
2019-02-21T01:41:33.663Z,59.82
2019-02-21T01:42:40.473Z,59.51
2019-02-21T01:43:46.993Z,59.31
2019-02-21T01:44:54.004Z,58.49
2019-02-21T01:46:01.296Z,58.17
2019-02-21T01:47:09.238Z,58.91
2019-02-21T01:48:16.292Z,59.99
2019-02-21T01:49:24.025Z,61.02
2019-02-21T01:50:31.700Z,62.42
2019-02-21T01:51:39.195Z,64.81
2019-02-21T01:52:46.389Z,66.34
2019-02-21T01:53:54.075Z,66.34
2019-02-21T01:55:00.988Z,65.35
2019-02-21T01:56:08.155Z,64.30
2019-02-21T01:57:14.980Z,63.42
2019-02-21T01:58:22.260Z,62.66
2019-02-21T01:59:28.843Z,61.80
2019-02-21T02:00:36.976Z,61.16
2019-02-21T02:01:44.418Z,60.58
2019-02-21T02:02:51.983Z,60.42
2019-02-21T02:03:58.680Z,59.98
2019-02-21T02:05:06.868Z,59.78
2019-02-21T02:06:14.220Z,59.36
2019-02-21T02:07:21.147Z,58.40
2019-02-21T02:08:48.827Z,57.99
2019-02-21T02:09:56.297Z,58.84
2019-02-21T02:11:03.274Z,59.90
2019-02-21T02:12:10.579Z,61.17
2019-02-21T02:13:24.552Z,62.42
2019-02-21T02:14:26.383Z,64.76
2019-02-21T02:15:32.965Z,66.62
2019-02-21T02:16:39.522Z,66.44
2019-02-21T02:17:46.431Z,65.05
2019-02-21T02:18:53.005Z,63.68
2019-02-21T02:20:02.318Z,62.36
2019-02-21T02:21:09.393Z,61.43
2019-02-21T02:22:23.400Z,60.82
2019-02-21T02:23:30.018Z,60.15
2019-02-21T02:24:38.328Z,59.68
2019-02-21T02:25:45.698Z,59.15
2019-02-21T02:26:52.354Z,57.92
2019-02-21T02:27:59.539Z,57.76
2019-02-21T02:29:07.737Z,58.40
2019-02-21T02:30:15.297Z,59.26
2019-02-21T02:31:23.570Z,60.36
2019-02-21T02:32:30.511Z,61.77
2019-02-21T02:33:38.400Z,62.62
2019-02-21T02:34:46.187Z,65.43
2019-02-21T02:35:52.975Z,67.19
2019-02-21T02:37:00.198Z,66.42
2019-02-21T02:38:07.253Z,65.18
2019-02-21T02:39:14.298Z,63.73
2019-02-21T02:40:21.105Z,62.18
2019-02-21T02:41:27.865Z,61.36
2019-02-21T02:42:34.463Z,60.57
2019-02-21T02:43:41.604Z,59.88
2019-02-21T02:44:49.025Z,59.43
2019-02-21T02:45:56.658Z,58.25
2019-02-21T02:47:03.174Z,57.69
2019-02-21T02:48:09.802Z,58.44
2019-02-21T02:49:16.734Z,59.42
2019-02-21T02:50:23.268Z,60.53
2019-02-21T02:51:29.971Z,61.66
2019-02-21T02:52:37.537Z,62.95
2019-02-21T02:53:44.133Z,65.25
2019-02-21T02:54:50.757Z,67.19
2019-02-21T02:55:57.891Z,67.23
2019-02-21T02:57:05.259Z,66.58
2019-02-21T02:58:12.239Z,65.76
2019-02-21T02:59:18.832Z,64.83
2019-02-21T03:00:25.389Z,63.97
2019-02-21T03:01:34.676Z,63.38
2019-02-21T03:02:40.900Z,62.78
2019-02-21T03:03:47.471Z,62.13
2019-02-21T03:04:54.122Z,61.43
2019-02-21T03:06:00.631Z,60.82
2019-02-21T03:07:07.816Z,60.24
2019-02-21T03:08:15.238Z,59.84
2019-02-21T03:09:21.862Z,59.40
2019-02-21T03:10:29.221Z,58.52
2019-02-21T03:11:37.230Z,58.20
2019-02-21T03:12:44.458Z,58.70
2019-02-21T03:13:51.225Z,59.86
2019-02-21T03:14:58.113Z,61.23
2019-02-21T03:16:05.071Z,62.49
2019-02-21T03:17:11.452Z,64.66
2019-02-21T03:18:18.986Z,66.14
2019-02-21T03:19:25.972Z,66.00
2019-02-21T03:20:32.800Z,65.23
2019-02-21T03:21:40.508Z,64.17
2019-02-21T03:22:47.708Z,63.50
2019-02-21T03:23:54.547Z,62.76
2019-02-21T03:25:01.491Z,62.07
2019-02-21T03:26:08.835Z,61.43
2019-02-21T03:27:16.142Z,60.71
2019-02-21T03:28:23.172Z,60.27
2019-02-21T03:29:29.291Z,59.41
2019-02-21T03:30:36.585Z,58.46
2019-02-21T03:31:54.137Z,57.85
2019-02-21T03:32:52.397Z,58.22
2019-02-21T03:33:59.000Z,59.23
2019-02-21T03:35:06.238Z,60.37
2019-02-21T03:36:13.240Z,61.55
2019-02-21T03:37:19.482Z,62.46
2019-02-21T03:38:26.529Z,64.72
2019-02-21T03:39:33.977Z,66.22
2019-02-21T03:40:41.222Z,66.00
2019-02-21T03:41:48.071Z,65.34
2019-02-21T03:42:54.944Z,64.39
2019-02-21T03:44:01.917Z,63.35
2019-02-21T03:45:12.772Z,62.37
2019-02-21T03:46:19.964Z,61.63
2019-02-21T03:47:27.336Z,60.78
2019-02-21T03:48:33.982Z,60.02
2019-02-21T03:49:41.431Z,59.66
2019-02-21T03:50:48.305Z,59.01
2019-02-21T03:51:55.440Z,57.88
2019-02-21T03:53:02.211Z,57.37
2019-02-21T03:54:09.536Z,57.77
2019-02-21T03:55:15.881Z,58.57
2019-02-21T03:56:23.311Z,59.38
2019-02-21T03:57:30.464Z,60.43
2019-02-21T03:58:37.436Z,61.52
2019-02-21T03:59:45.195Z,62.39
2019-02-21T04:00:51.874Z,64.40
2019-02-21T04:02:05.390Z,65.99
2019-02-21T04:03:07.140Z,65.69
2019-02-21T04:04:14.930Z,65.00
2019-02-21T04:05:22.181Z,64.30
2019-02-21T04:06:29.361Z,63.22
2019-02-21T04:07:37.029Z,62.64
2019-02-21T04:08:45.512Z,62.05
2019-02-21T04:09:52.346Z,61.56
2019-02-21T04:10:59.478Z,60.93
2019-02-21T04:12:09.107Z,60.19
2019-02-21T04:13:16.476Z,59.73
2019-02-21T04:14:23.591Z,59.20
2019-02-21T04:15:30.392Z,57.92
2019-02-21T04:16:36.642Z,57.42
2019-02-21T04:17:43.639Z,57.80
2019-02-21T04:18:50.840Z,58.56
2019-02-21T04:19:58.091Z,59.43
2019-02-21T04:21:04.911Z,60.43
2019-02-21T04:22:12.226Z,61.19
2019-02-21T04:23:19.468Z,62.14
2019-02-21T04:24:26.515Z,64.48
2019-02-21T04:25:33.487Z,66.52
2019-02-21T04:26:39.712Z,66.47
2019-02-21T04:27:46.079Z,65.43
2019-02-21T04:28:52.665Z,64.00
2019-02-21T04:29:59.183Z,62.98
2019-02-21T04:31:05.388Z,62.18
2019-02-21T04:32:17.024Z,61.63
2019-02-21T04:33:21.688Z,61.26
2019-02-21T04:34:29.089Z,60.69
2019-02-21T04:35:36.766Z,60.13
2019-02-21T04:36:43.867Z,59.79
2019-02-21T04:37:50.913Z,59.38
2019-02-21T04:38:57.585Z,58.42
2019-02-21T04:40:03.838Z,57.81
2019-02-21T04:41:16.973Z,58.08
2019-02-21T04:42:25.694Z,58.81
2019-02-21T04:43:32.237Z,60.12
2019-02-21T04:44:38.549Z,61.24
2019-02-21T04:45:47.167Z,62.19
2019-02-21T04:46:54.665Z,64.32
2019-02-21T04:48:01.611Z,65.80
2019-02-21T04:49:09.095Z,65.26
2019-02-21T04:50:16.721Z,64.79
2019-02-21T04:51:23.620Z,63.95
2019-02-21T04:52:30.246Z,63.12
2019-02-21T04:53:37.186Z,62.52
2019-02-21T04:54:44.619Z,62.03
2019-02-21T04:55:51.582Z,61.83
2019-02-21T04:56:58.208Z,61.30
2019-02-21T04:58:05.466Z,61.01
2019-02-21T04:59:12.529Z,60.65
2019-02-21T05:00:19.044Z,60.41
2019-02-21T05:01:25.938Z,60.00
2019-02-21T05:02:33.075Z,60.16
2019-02-21T05:03:39.687Z,60.32
2019-02-21T05:04:46.228Z,60.18
2019-02-21T05:05:53.770Z,60.08
2019-02-21T05:07:01.878Z,59.78
2019-02-21T05:08:08.598Z,59.33
2019-02-21T05:09:16.400Z,58.50
2019-02-21T05:10:22.799Z,58.24
2019-02-21T05:11:29.963Z,58.75
2019-02-21T05:12:36.893Z,59.41
2019-02-21T05:13:43.708Z,60.42
2019-02-21T05:14:50.424Z,61.38
2019-02-21T05:15:57.928Z,62.51
2019-02-21T05:17:04.329Z,64.86
2019-02-21T05:18:11.007Z,66.57
2019-02-21T05:19:17.845Z,66.58
2019-02-21T05:20:24.591Z,65.74
2019-02-21T05:21:31.254Z,64.32
2019-02-21T05:22:39.223Z,63.20
2019-02-21T05:23:46.194Z,62.09
2019-02-21T05:24:53.083Z,61.26
2019-02-21T05:25:59.801Z,60.62
2019-02-21T05:27:14.030Z,59.73
2019-02-21T05:28:22.219Z,59.28
2019-02-21T05:29:28.720Z,58.23
2019-02-21T05:30:36.425Z,57.91
2019-02-21T05:31:50.496Z,58.45
2019-02-21T05:32:59.119Z,59.36
2019-02-21T05:34:07.926Z,60.68
2019-02-21T05:35:21.053Z,61.76
2019-02-21T05:36:36.606Z,63.85
2019-02-21T05:37:45.180Z,66.10
2019-02-21T05:38:56.661Z,65.99
2019-02-21T05:40:13.944Z,64.92
2019-02-21T05:41:25.691Z,64.18
2019-02-21T05:42:36.717Z,63.54
2019-02-21T05:43:47.728Z,63.01
2019-02-21T05:44:56.459Z,62.38
2019-02-21T05:46:10.424Z,61.79
2019-02-21T05:47:30.313Z,61.45
2019-02-21T05:48:44.849Z,61.19
2019-02-21T05:50:01.670Z,60.33
2019-02-21T05:51:10.781Z,59.85
2019-02-21T05:52:22.244Z,59.29
2019-02-21T05:53:33.840Z,58.23
2019-02-21T05:55:02.337Z,57.98
2019-02-21T05:56:14.085Z,58.79
2019-02-21T05:57:22.297Z,59.98
2019-02-21T05:58:36.759Z,61.27
2019-02-21T05:59:47.795Z,62.44
2019-02-21T06:01:02.474Z,64.77
2019-02-21T06:02:52.565Z,66.52
2019-02-21T06:04:05.441Z,66.33
2019-02-21T06:05:32.594Z,65.31
2019-02-21T06:07:00.736Z,63.98
2019-02-21T06:08:09.294Z,62.96
2019-02-21T06:09:17.358Z,62.24
2019-02-21T06:10:23.527Z,61.78
2019-02-21T06:11:47.659Z,61.27
2019-02-21T06:13:04.969Z,60.81
2019-02-21T06:14:19.439Z,60.48
2019-02-21T06:15:26.029Z,59.82
2019-02-21T06:16:40.355Z,59.39
2019-02-21T06:18:03.731Z,58.65
2019-02-21T06:19:21.809Z,58.47
2019-02-21T06:20:33.966Z,59.42
2019-02-21T06:22:10.128Z,60.82
2019-02-21T06:23:11.994Z,61.94
2019-02-21T06:24:26.308Z,64.80
2019-02-21T06:25:34.424Z,66.39
2019-02-21T06:26:49.229Z,66.27
2019-02-21T06:27:58.559Z,65.32
2019-02-21T06:29:09.764Z,64.32
2019-02-21T06:30:19.812Z,63.51
2019-02-21T06:31:29.919Z,62.95
2019-02-21T06:32:37.109Z,62.69
2019-02-21T06:33:43.792Z,62.33
2019-02-21T06:34:52.276Z,62.04
2019-02-21T06:36:00.341Z,62.14
2019-02-21T06:37:08.033Z,62.05
2019-02-21T06:38:15.525Z,61.86
2019-02-21T06:39:25.182Z,61.78
2019-02-21T06:40:32.182Z,61.81
2019-02-21T06:41:38.618Z,61.85
2019-02-21T06:42:46.433Z,61.83
2019-02-21T06:43:56.757Z,61.72
2019-02-21T06:45:03.750Z,61.35
2019-02-21T06:46:13.799Z,61.04
2019-02-21T06:47:22.439Z,60.85
2019-02-21T06:48:29.731Z,60.59
2019-02-21T06:49:36.987Z,60.68
2019-02-21T06:50:42.919Z,60.56
2019-02-21T06:51:49.776Z,60.61
2019-02-21T06:52:57.255Z,60.43
2019-02-21T06:54:03.969Z,60.20
2019-02-21T06:55:10.899Z,60.22
2019-02-21T06:56:18.172Z,59.94
2019-02-21T06:57:24.748Z,59.92
2019-02-21T06:58:31.614Z,60.15
2019-02-21T06:59:42.442Z,60.03
2019-02-21T07:00:46.428Z,59.96
2019-02-21T07:01:53.339Z,59.85
2019-02-21T07:03:00.557Z,59.75
2019-02-21T07:04:07.795Z,59.68
2019-02-21T07:05:15.037Z,59.67
2019-02-21T07:06:31.527Z,59.98
2019-02-21T07:07:33.075Z,59.71
2019-02-21T07:08:42.154Z,59.54
2019-02-21T07:10:09.879Z,59.53
2019-02-21T07:11:18.756Z,59.64
2019-02-21T07:12:26.258Z,59.40
2019-02-21T07:13:33.265Z,58.58
2019-02-21T07:14:39.637Z,58.45
2019-02-21T07:15:46.025Z,59.19
2019-02-21T07:16:53.347Z,60.24
2019-02-21T07:18:00.008Z,61.52
2019-02-21T07:19:10.845Z,62.84
2019-02-21T07:20:17.698Z,65.30
2019-02-21T07:21:25.238Z,66.96
2019-02-21T07:22:52.817Z,66.51
2019-02-21T07:23:59.290Z,65.50
2019-02-21T07:25:28.069Z,64.10
2019-02-21T07:26:34.591Z,62.80
2019-02-21T07:27:41.446Z,62.24
2019-02-21T07:28:49.409Z,61.57
2019-02-21T07:29:56.347Z,61.32
2019-02-21T07:31:03.240Z,61.05
2019-02-21T07:32:12.135Z,60.80
2019-02-21T07:33:27.899Z,60.59
2019-02-21T07:34:30.477Z,60.61
2019-02-21T07:35:40.216Z,60.52
2019-02-21T07:36:46.968Z,60.37
2019-02-21T07:37:55.668Z,60.24
2019-02-21T07:39:16.441Z,60.09
2019-02-21T07:40:19.999Z,59.83
2019-02-21T07:41:42.120Z,59.66
2019-02-21T07:43:09.438Z,59.28
2019-02-21T07:44:16.685Z,58.57
2019-02-21T07:45:23.495Z,58.67
2019-02-21T07:46:32.431Z,59.66
2019-02-21T07:47:39.845Z,60.90
2019-02-21T07:48:47.890Z,61.96
2019-02-21T07:50:15.122Z,64.20
2019-02-21T07:51:21.407Z,66.02
2019-02-21T07:52:28.876Z,66.10
2019-02-21T07:53:37.329Z,65.08
2019-02-21T07:54:44.237Z,64.23
2019-02-21T07:56:09.957Z,63.11
2019-02-21T07:57:16.949Z,62.23
2019-02-21T07:58:25.135Z,61.82
2019-02-21T07:59:33.781Z,61.54
2019-02-21T08:01:01.208Z,61.19
2019-02-21T08:02:08.028Z,60.96
2019-02-21T08:03:14.959Z,60.83
2019-02-21T08:04:21.629Z,60.64
2019-02-21T08:05:28.595Z,60.39
2019-02-21T08:06:35.837Z,60.29
2019-02-21T08:07:42.419Z,60.28
2019-02-21T08:08:49.409Z,59.94
2019-02-21T08:09:56.065Z,59.94
2019-02-21T08:11:03.666Z,59.93
2019-02-21T08:12:10.580Z,59.90
2019-02-21T08:13:17.994Z,59.95
2019-02-21T08:14:25.084Z,59.67
2019-02-21T08:15:34.353Z,59.63
2019-02-21T08:16:41.746Z,59.53
2019-02-21T08:17:49.200Z,59.44
2019-02-21T08:18:56.345Z,59.64
2019-02-21T08:20:08.995Z,59.59
2019-02-21T08:21:16.506Z,59.50
2019-02-21T08:22:23.009Z,58.90
2019-02-21T08:23:32.364Z,59.03
2019-02-21T08:24:39.067Z,59.68
2019-02-21T08:25:46.504Z,60.89
2019-02-21T08:26:53.717Z,62.04
2019-02-21T08:28:00.693Z,64.52
2019-02-21T08:29:08.183Z,66.36
2019-02-21T08:30:17.519Z,66.28
2019-02-21T08:31:24.612Z,66.16
2019-02-21T08:32:32.560Z,65.73
2019-02-21T08:33:58.967Z,65.91
2019-02-21T08:35:07.277Z,65.48
2019-02-21T08:36:14.523Z,65.36
2019-02-21T08:37:21.024Z,64.93
2019-02-21T08:38:27.793Z,64.33
2019-02-21T08:39:33.859Z,63.92
2019-02-21T08:40:40.934Z,64.08
2019-02-21T08:41:47.673Z,63.83
2019-02-21T08:42:53.471Z,63.65
2019-02-21T08:44:00.656Z,63.39
2019-02-21T08:45:06.713Z,63.21
2019-02-21T08:46:14.025Z,63.04
2019-02-21T08:47:21.302Z,63.09
2019-02-21T08:48:27.193Z,62.93
2019-02-21T08:49:33.973Z,62.80
2019-02-21T08:50:40.506Z,62.40
2019-02-21T08:51:46.386Z,62.29
2019-02-21T08:52:52.863Z,62.41
2019-02-21T08:53:59.445Z,62.41
2019-02-21T08:55:07.370Z,62.59
2019-02-21T08:56:13.653Z,62.92
2019-02-21T08:57:21.392Z,62.46
2019-02-21T08:58:27.413Z,62.38
2019-02-21T08:59:34.584Z,62.39
2019-02-21T09:00:40.903Z,62.61
2019-02-21T09:01:46.900Z,62.52
2019-02-21T09:02:53.941Z,62.29
2019-02-21T09:04:10.179Z,62.09
2019-02-21T09:05:10.904Z,62.04
2019-02-21T09:06:18.225Z,62.07
2019-02-21T09:07:24.853Z,62.02
2019-02-21T09:08:35.079Z,61.67
2019-02-21T09:09:40.446Z,61.62
2019-02-21T09:10:46.188Z,62.31
2019-02-21T09:11:53.732Z,62.62
2019-02-21T09:12:59.315Z,62.71
2019-02-21T09:14:05.491Z,63.06
2019-02-21T09:15:16.770Z,63.46
2019-02-21T09:16:23.100Z,63.68
2019-02-21T09:17:32.106Z,63.88
2019-02-21T09:18:37.823Z,64.06
2019-02-21T09:19:45.813Z,63.94
2019-02-21T09:20:52.112Z,63.79
2019-02-21T09:21:58.902Z,63.56
2019-02-21T09:23:05.834Z,63.08
2019-02-21T09:24:13.838Z,63.20
2019-02-21T09:25:20.954Z,62.97
2019-02-21T09:26:27.725Z,62.70
2019-02-21T09:27:33.632Z,62.64
2019-02-21T09:28:39.840Z,62.60
2019-02-21T09:29:46.175Z,62.22
2019-02-21T09:30:52.260Z,62.14
2019-02-21T09:31:58.193Z,62.05
2019-02-21T09:33:14.789Z,61.66
2019-02-21T09:34:20.953Z,61.59
2019-02-21T09:35:21.720Z,61.35
2019-02-21T09:36:28.622Z,61.65
2019-02-21T09:37:35.992Z,61.84
2019-02-21T09:38:42.863Z,61.61
2019-02-21T09:39:49.262Z,61.88
2019-02-21T09:40:55.594Z,61.64
2019-02-21T09:42:01.962Z,61.70
2019-02-21T09:43:08.213Z,61.40
2019-02-21T09:44:15.053Z,61.30
2019-02-21T09:45:21.587Z,61.12
2019-02-21T09:46:27.721Z,61.08
2019-02-21T09:47:33.656Z,61.18
2019-02-21T09:48:39.582Z,61.23
2019-02-21T09:49:45.308Z,61.10
2019-02-21T09:50:51.363Z,61.58
2019-02-21T09:51:57.522Z,61.33
2019-02-21T09:53:03.341Z,60.86
2019-02-21T09:54:09.154Z,60.99
2019-02-21T09:55:18.270Z,61.47
2019-02-21T09:56:30.268Z,61.16
2019-02-21T09:57:32.883Z,61.20
2019-02-21T09:58:40.014Z,61.01
2019-02-21T09:59:45.809Z,61.23
2019-02-21T10:00:52.238Z,61.48
2019-02-21T10:01:58.881Z,61.32
2019-02-21T10:03:07.422Z,61.38
2019-02-21T10:04:14.341Z,61.32
2019-02-21T10:05:21.274Z,61.34
2019-02-21T10:06:27.398Z,60.99
2019-02-21T10:07:36.985Z,60.84
2019-02-21T10:08:42.241Z,60.93
2019-02-21T10:09:48.323Z,60.86
2019-02-21T10:10:55.355Z,60.76
2019-02-21T10:12:01.555Z,61.14
2019-02-21T10:13:08.248Z,61.34
2019-02-21T10:14:15.983Z,61.05
2019-02-21T10:15:21.861Z,60.75
2019-02-21T10:16:27.643Z,60.97
2019-02-21T10:17:33.792Z,61.30
2019-02-21T10:18:39.722Z,61.41
2019-02-21T10:19:46.548Z,61.73
2019-02-21T10:20:52.603Z,61.73
2019-02-21T10:21:59.754Z,61.50
2019-02-21T10:23:05.909Z,61.54
2019-02-21T10:24:11.955Z,61.74
2019-02-21T10:25:30.669Z,61.71
2019-02-21T10:26:38.683Z,61.85
2019-02-21T10:27:46.895Z,61.72
2019-02-21T10:28:53.602Z,61.31
2019-02-21T10:29:59.781Z,61.28
2019-02-21T10:33:25.405Z,61.69
2019-02-21T10:34:42.641Z,61.52
2019-02-21T10:35:41.892Z,61.61
2019-02-21T10:36:47.866Z,61.72
2019-02-21T10:37:55.044Z,61.77
2019-02-21T10:39:00.787Z,61.70
2019-02-21T10:40:12.319Z,61.61
2019-02-21T10:41:20.126Z,61.73
2019-02-21T10:42:26.144Z,61.71
2019-02-21T10:43:32.147Z,61.68
2019-02-21T10:44:37.889Z,61.83
2019-02-21T10:45:47.846Z,61.77
2019-02-21T10:46:51.087Z,61.91
2019-02-21T10:47:57.347Z,62.17
2019-02-21T10:49:03.096Z,62.15
2019-02-21T10:50:14.104Z,62.08
2019-02-21T10:51:20.137Z,62.20
2019-02-21T10:52:26.181Z,62.31
2019-02-21T10:53:32.037Z,62.44
2019-02-21T10:54:37.826Z,-1.00
2019-02-21T15:14:45.197Z,-1.00
2019-02-21T15:16:22.610Z,-1.00
2019-02-21T15:18:19.158Z,-1.00
2019-02-21T15:19:29.513Z,-1.00
2019-02-21T15:22:03.966Z,-1.00
2019-02-21T16:27:10.751Z,-1.00
2019-02-21T16:29:38.711Z,-1.00
2019-02-21T16:30:49.077Z,-1.00
2019-02-21T16:31:59.524Z,-1.00
2019-02-21T16:33:50.745Z,-1.00
2019-02-21T16:35:00.227Z,-1.00
2019-02-21T16:36:20.146Z,-1.00
2019-02-21T16:37:30.379Z,-1.00
2019-02-21T16:38:52.661Z,-1.00
2019-02-21T16:40:07.128Z,-1.00
2019-02-21T16:42:54.160Z,-1.00
2019-02-21T16:46:20.866Z,-1.00
2019-02-21T16:47:33.579Z,-1.00
2019-02-21T16:49:04.762Z,-1.00
2019-02-21T16:51:09.032Z,-1.00
2019-02-21T16:53:11.785Z,-1.00
2019-02-21T16:55:20.338Z,-1.00
2019-02-21T17:07:53.124Z,-1.00
2019-02-21T17:39:35.040Z,-1.00
2019-02-21T19:40:38.341Z,-1.00
